createdAt,value
2023-01-08T00:01:13.639Z,65.70
2023-01-08T00:03:41.048Z,65.20
2023-01-08T00:06:11.865Z,65.60
2023-01-08T00:08:38.650Z,66.30
2023-01-08T00:11:05.662Z,66.60
2023-01-08T00:13:32.417Z,66.80
2023-01-08T00:16:04.242Z,67.30
2023-01-08T00:18:31.152Z,67.90
2023-01-08T00:20:58.223Z,69.00
2023-01-08T00:23:25.038Z,68.50
2023-01-08T00:25:51.862Z,68.70
2023-01-08T00:28:20.512Z,69.60
2023-01-08T00:30:48.188Z,69.40
2023-01-08T00:33:15.604Z,69.30
2023-01-08T00:35:42.422Z,69.40
2023-01-08T00:38:09.180Z,69.50
2023-01-08T00:40:36.627Z,69.50
2023-01-08T00:43:04.190Z,70.10
2023-01-08T00:45:31.324Z,69.50
2023-01-08T00:47:58.723Z,69.00
2023-01-08T00:50:26.138Z,68.70
2023-01-08T00:52:53.164Z,69.10
2023-01-08T00:55:19.996Z,68.70
2023-01-08T00:57:58.147Z,68.70
2023-01-08T01:00:25.534Z,67.90
2023-01-08T01:02:52.365Z,68.20
2023-01-08T01:05:19.237Z,68.40
2023-01-08T01:07:46.788Z,68.30
2023-01-08T01:10:15.694Z,69.40
2023-01-08T01:12:43.194Z,68.90
2023-01-08T01:15:13.654Z,68.60
2023-01-08T01:17:42.401Z,69.40
2023-01-08T01:20:11.853Z,69.00
2023-01-08T01:22:39.097Z,68.60
2023-01-08T01:25:06.803Z,69.00
2023-01-08T01:27:33.623Z,69.20
2023-01-08T01:30:00.387Z,68.70
2023-01-08T01:32:27.167Z,67.80
2023-01-08T01:34:53.913Z,67.70
2023-01-08T01:37:20.633Z,68.00
2023-01-08T01:39:47.452Z,68.20
2023-01-08T01:42:33.595Z,68.10
2023-01-08T01:45:00.516Z,67.50
2023-01-08T01:47:36.828Z,67.90
2023-01-08T01:50:36.024Z,68.10
2023-01-08T01:53:17.500Z,68.20
2023-01-08T01:55:45.709Z,67.90
2023-01-08T01:58:23.420Z,66.90
2023-01-08T02:00:52.418Z,67.00
2023-01-08T02:03:23.178Z,67.30
2023-01-08T02:05:58.719Z,67.70
2023-01-08T02:08:57.466Z,67.70
2023-01-08T02:11:39.221Z,67.30
2023-01-08T02:14:14.415Z,66.80
2023-01-08T02:16:49.984Z,67.50
2023-01-08T02:19:21.584Z,68.80
2023-01-08T02:22:14.394Z,69.40
2023-01-08T02:25:07.542Z,69.40
2023-01-08T02:27:36.167Z,68.80
2023-01-08T02:30:04.630Z,68.60
2023-01-08T02:32:37.812Z,68.40
2023-01-08T02:35:06.617Z,68.10
2023-01-08T02:37:33.738Z,68.80
2023-01-08T02:40:07.911Z,69.10
2023-01-08T02:43:00.069Z,69.10
2023-01-08T02:45:37.414Z,69.40
2023-01-08T02:48:35.745Z,68.70
2023-01-08T02:51:12.324Z,68.90
2023-01-08T02:53:47.082Z,69.20
2023-01-08T02:56:24.550Z,68.60
2023-01-08T02:58:52.682Z,67.90
2023-01-08T03:01:22.328Z,67.20
2023-01-08T03:04:02.214Z,67.00
2023-01-08T03:06:29.605Z,66.50
2023-01-08T03:08:57.696Z,66.30
2023-01-08T03:11:29.982Z,66.30
2023-01-08T03:14:14.324Z,65.90
2023-01-08T03:17:01.004Z,65.60
2023-01-08T03:19:45.225Z,64.90
2023-01-08T03:22:16.232Z,64.90
2023-01-08T03:24:45.860Z,64.90
2023-01-08T03:27:17.624Z,64.80
2023-01-08T03:29:46.820Z,65.20
2023-01-08T03:32:17.554Z,65.30
2023-01-08T03:34:47.749Z,64.90
2023-01-08T03:37:18.376Z,64.90
2023-01-08T03:40:05.386Z,64.90
2023-01-08T03:42:32.853Z,64.80
2023-01-08T03:45:03.181Z,64.30
2023-01-08T03:47:30.941Z,64.70
2023-01-08T03:50:00.658Z,65.70
2023-01-08T03:52:31.003Z,67.00
2023-01-08T03:54:58.009Z,67.60
2023-01-08T03:57:25.099Z,66.80
2023-01-08T03:59:51.841Z,67.00
2023-01-08T04:02:18.810Z,66.90
2023-01-08T04:04:45.732Z,67.00
2023-01-08T04:07:13.096Z,67.10
2023-01-08T04:09:39.880Z,67.00
2023-01-08T04:12:06.711Z,66.90
2023-01-08T04:14:33.435Z,67.40
2023-01-08T04:17:00.261Z,67.10
2023-01-08T04:19:27.115Z,67.60
2023-01-08T04:21:53.859Z,67.00
2023-01-08T04:24:20.816Z,66.90
2023-01-08T04:26:47.725Z,66.60
2023-01-08T04:29:14.665Z,66.50
2023-01-08T04:31:41.489Z,65.90
2023-01-08T04:34:08.272Z,65.40
2023-01-08T04:36:34.961Z,65.40
2023-01-08T04:39:01.716Z,66.00
2023-01-08T04:41:28.432Z,66.30
2023-01-08T04:43:55.166Z,67.00
2023-01-08T04:46:21.914Z,68.00
2023-01-08T04:48:48.680Z,67.50
2023-01-08T04:51:15.343Z,67.30
2023-01-08T04:53:42.148Z,67.20
2023-01-08T04:56:11.057Z,66.20
2023-01-08T04:58:39.444Z,66.40
2023-01-08T05:01:38.902Z,66.30
2023-01-08T05:04:05.848Z,66.20
2023-01-08T05:06:33.519Z,66.80
2023-01-08T05:09:00.339Z,66.70
2023-01-08T05:11:27.041Z,67.40
2023-01-08T05:13:54.541Z,67.50
2023-01-08T05:16:21.672Z,67.00
2023-01-08T05:18:48.651Z,67.10
2023-01-08T05:21:16.425Z,67.50
2023-01-08T05:23:46.749Z,67.40
2023-01-08T05:26:14.363Z,67.30
2023-01-08T05:28:41.129Z,66.80
2023-01-08T05:31:07.892Z,66.70
2023-01-08T05:33:34.598Z,66.10
2023-01-08T05:36:03.958Z,65.70
2023-01-08T05:38:30.637Z,65.50
2023-01-08T05:40:57.355Z,65.40
2023-01-08T05:43:24.051Z,65.10
2023-01-08T05:45:50.811Z,65.10
2023-01-08T05:48:17.494Z,64.80
2023-01-08T05:50:44.174Z,64.60
2023-01-08T05:53:10.905Z,64.70
2023-01-08T05:55:37.643Z,64.50
2023-01-08T05:58:05.281Z,64.80
2023-01-08T06:00:33.708Z,64.70
2023-01-08T06:03:00.505Z,65.00
2023-01-08T06:05:27.328Z,65.10
2023-01-08T06:07:54.020Z,65.60
2023-01-08T06:10:20.805Z,65.60
2023-01-08T06:12:47.711Z,65.10
2023-01-08T06:15:14.466Z,64.70
2023-01-08T06:17:41.680Z,64.70
2023-01-08T06:20:09.053Z,65.40
2023-01-08T06:22:35.959Z,65.10
2023-01-08T06:25:03.671Z,64.80
2023-01-08T06:27:30.482Z,64.00
2023-01-08T06:29:57.240Z,64.10
2023-01-08T06:32:23.978Z,63.80
2023-01-08T06:34:50.686Z,63.60
2023-01-08T06:37:17.400Z,63.00
2023-01-08T06:39:44.250Z,62.10
2023-01-08T06:42:11.034Z,61.40
2023-01-08T06:44:37.718Z,61.30
2023-01-08T06:47:04.501Z,60.70
2023-01-08T06:49:31.239Z,61.00
2023-01-08T06:51:57.997Z,61.70
2023-01-08T06:54:24.723Z,61.90
2023-01-08T06:56:53.914Z,61.80
2023-01-08T06:59:21.771Z,62.60
2023-01-08T07:01:49.070Z,62.50
2023-01-08T07:04:16.026Z,62.40
2023-01-08T07:06:42.697Z,62.00
2023-01-08T07:09:13.383Z,61.70
2023-01-08T07:11:41.733Z,61.50
2023-01-08T07:14:08.560Z,62.00
2023-01-08T07:16:35.982Z,62.70
2023-01-08T07:19:02.688Z,62.60
2023-01-08T07:21:29.476Z,62.30
2023-01-08T07:23:56.176Z,62.50
2023-01-08T07:26:22.865Z,62.80
2023-01-08T07:28:49.577Z,62.80
2023-01-08T07:31:16.340Z,62.90
2023-01-08T07:33:43.284Z,62.10
2023-01-08T07:36:09.981Z,61.70
2023-01-08T07:38:36.681Z,61.70
2023-01-08T07:41:04.509Z,62.00
2023-01-08T07:43:31.446Z,62.30
2023-01-08T07:45:58.222Z,62.00
2023-01-08T07:48:24.991Z,61.10
2023-01-08T07:50:51.773Z,60.90
2023-01-08T07:53:18.528Z,60.00
2023-01-08T07:55:45.616Z,60.10
2023-01-08T07:58:14.578Z,60.10
2023-01-08T08:00:41.748Z,60.70
2023-01-08T08:03:11.546Z,60.70
2023-01-08T08:05:38.731Z,60.70
2023-01-08T08:08:10.649Z,60.80
2023-01-08T08:10:38.141Z,60.20
2023-01-08T08:13:05.241Z,60.40
2023-01-08T08:15:33.338Z,60.40
2023-01-08T08:18:00.107Z,60.20
2023-01-08T08:20:27.253Z,60.40
2023-01-08T08:23:04.231Z,59.90
2023-01-08T08:25:31.302Z,59.50
2023-01-08T08:27:59.487Z,58.80
2023-01-08T08:31:07.744Z,59.10
2023-01-08T08:33:36.727Z,59.00
2023-01-08T08:36:03.710Z,58.40
2023-01-08T08:38:30.384Z,58.00
2023-01-08T08:40:57.275Z,57.50
2023-01-08T08:43:23.988Z,57.10
2023-01-08T08:45:50.728Z,55.80
2023-01-08T08:48:17.525Z,54.60
2023-01-08T08:50:44.352Z,54.60
2023-01-08T08:53:11.137Z,54.10
2023-01-08T08:55:37.870Z,53.40
2023-01-08T08:58:14.065Z,53.00
2023-01-08T09:00:42.188Z,53.00
2023-01-08T09:03:14.848Z,52.20
2023-01-08T09:05:43.205Z,51.60
2023-01-08T09:08:10.965Z,52.10
2023-01-08T09:10:39.956Z,52.20
2023-01-08T09:13:06.851Z,51.50
2023-01-08T09:15:33.593Z,51.30
2023-01-08T09:18:00.407Z,51.30
2023-01-08T09:20:27.318Z,51.40
2023-01-08T09:22:54.093Z,51.40
2023-01-08T09:25:20.925Z,51.70
2023-01-08T09:27:47.937Z,52.20
2023-01-08T09:30:14.771Z,51.70
2023-01-08T09:32:41.525Z,52.20
2023-01-08T09:35:08.848Z,52.30
2023-01-08T09:37:35.642Z,51.90
2023-01-08T09:40:03.320Z,52.10
2023-01-08T09:42:31.416Z,51.70
2023-01-08T09:45:00.578Z,51.70
2023-01-08T09:47:38.484Z,51.40
2023-01-08T09:50:10.837Z,51.80
2023-01-08T09:52:43.546Z,52.40
2023-01-08T09:55:14.374Z,52.30
2023-01-08T09:57:41.576Z,52.20
2023-01-08T10:00:15.329Z,52.30
2023-01-08T10:02:42.877Z,52.20
2023-01-08T10:05:16.393Z,51.70
2023-01-08T10:07:46.530Z,50.90
2023-01-08T10:10:24.147Z,51.10
2023-01-08T10:12:51.412Z,50.70
2023-01-08T10:15:21.384Z,50.60
2023-01-08T10:18:12.056Z,50.50
2023-01-08T10:20:39.478Z,51.00
2023-01-08T10:23:18.034Z,50.70
2023-01-08T10:25:56.342Z,50.60
2023-01-08T10:28:31.479Z,50.30
2023-01-08T10:31:14.846Z,49.90
2023-01-08T10:33:46.843Z,49.60
2023-01-08T10:36:22.800Z,50.20
2023-01-08T10:39:00.357Z,51.50
2023-01-08T10:41:28.085Z,53.50
2023-01-08T10:44:03.350Z,52.50
2023-01-08T10:46:44.278Z,52.20
2023-01-08T10:49:26.703Z,53.80
2023-01-08T10:51:53.997Z,55.00
2023-01-08T10:54:35.377Z,55.40
2023-01-08T10:57:02.863Z,56.20
2023-01-08T10:59:30.004Z,56.80
2023-01-08T11:01:58.255Z,56.40
2023-01-08T11:04:34.148Z,56.50
2023-01-08T11:07:07.365Z,56.30
2023-01-08T11:09:50.036Z,56.40
2023-01-08T11:12:32.283Z,57.00
2023-01-08T11:14:59.754Z,56.30
2023-01-08T11:17:27.098Z,57.50
2023-01-08T11:19:55.782Z,57.50
2023-01-08T11:22:24.768Z,57.00
2023-01-08T11:24:53.146Z,57.40
2023-01-08T11:27:31.749Z,57.00
2023-01-08T11:30:21.206Z,56.80
2023-01-08T11:33:12.744Z,57.80
2023-01-08T11:35:50.373Z,56.70
2023-01-08T11:38:17.479Z,56.50
2023-01-08T11:41:11.421Z,56.30
2023-01-08T11:43:44.992Z,56.00
2023-01-08T11:46:33.545Z,55.90
2023-01-08T11:49:21.538Z,55.40
2023-01-08T11:52:18.721Z,55.00
2023-01-08T11:55:20.543Z,55.30
2023-01-08T11:58:13.248Z,55.90
2023-01-08T12:01:06.177Z,55.90
2023-01-08T12:03:42.533Z,56.90
2023-01-08T12:06:37.047Z,57.60
2023-01-08T12:09:33.933Z,58.00
2023-01-08T12:12:28.362Z,58.10
2023-01-08T12:15:07.539Z,58.80
2023-01-08T12:18:03.599Z,58.90
2023-01-08T12:20:47.667Z,59.90
2023-01-08T12:24:00.271Z,60.70
2023-01-08T12:26:59.169Z,60.80
2023-01-08T12:29:37.773Z,61.30
2023-01-08T12:32:12.315Z,60.60
2023-01-08T12:35:02.664Z,61.00
2023-01-08T12:37:39.029Z,60.50
2023-01-08T12:40:24.619Z,61.80
2023-01-08T12:43:00.453Z,62.30
2023-01-08T12:45:32.738Z,62.70
2023-01-08T12:48:07.343Z,63.00
2023-01-08T12:50:49.615Z,62.20
2023-01-08T12:53:31.994Z,62.10
2023-01-08T12:56:14.348Z,61.20
2023-01-08T12:59:06.234Z,60.60
2023-01-08T13:01:45.962Z,59.30
2023-01-08T13:04:13.579Z,59.30
2023-01-08T13:06:50.637Z,58.70
2023-01-08T13:09:24.236Z,57.60
2023-01-08T13:11:56.213Z,57.50
2023-01-08T13:14:25.684Z,57.60
2023-01-08T13:17:16.018Z,57.90
2023-01-08T13:19:45.715Z,57.60
2023-01-08T13:22:31.020Z,57.50
2023-01-08T13:25:15.639Z,58.50
2023-01-08T13:27:43.417Z,58.70
2023-01-08T13:30:41.048Z,58.80
2023-01-08T13:33:44.233Z,58.50
2023-01-08T13:36:18.504Z,58.20
2023-01-08T13:38:45.705Z,58.40
2023-01-08T13:41:26.588Z,58.20
2023-01-08T13:44:34.540Z,58.70
2023-01-08T13:47:15.591Z,59.00
2023-01-08T13:49:51.301Z,59.50
2023-01-08T13:52:29.734Z,60.60
2023-01-08T13:54:56.824Z,62.00
2023-01-08T13:57:24.108Z,63.70
2023-01-08T13:59:57.949Z,64.20
2023-01-08T14:02:33.961Z,64.30
2023-01-08T14:05:02.708Z,64.50
2023-01-08T14:07:30.655Z,65.90
2023-01-08T14:10:13.059Z,65.80
2023-01-08T14:12:40.234Z,65.90
2023-01-08T14:15:28.694Z,65.60
2023-01-08T14:17:57.035Z,66.40
2023-01-08T14:20:35.521Z,66.80
2023-01-08T14:23:03.349Z,66.60
2023-01-08T14:25:30.637Z,66.60
2023-01-08T14:28:00.216Z,68.20
2023-01-08T14:30:27.464Z,70.50
2023-01-08T14:32:56.403Z,71.80
2023-01-08T14:35:34.309Z,72.90
2023-01-08T14:38:02.887Z,74.20
2023-01-08T14:40:36.369Z,75.50
2023-01-08T14:43:09.753Z,77.90
2023-01-08T14:45:38.452Z,78.70
2023-01-08T14:48:15.437Z,79.60
2023-01-08T14:50:44.341Z,79.00
2023-01-08T14:53:42.961Z,78.50
2023-01-08T14:56:14.326Z,78.20
2023-01-08T14:58:43.788Z,77.40
2023-01-08T15:01:24.924Z,76.40
2023-01-08T15:04:03.961Z,77.00
2023-01-08T15:06:32.339Z,77.50
2023-01-08T15:09:00.468Z,80.20
2023-01-08T15:11:49.171Z,83.10
2023-01-08T15:14:23.607Z,85.70
2023-01-08T15:16:55.326Z,86.10
2023-01-08T15:19:30.627Z,86.30
2023-01-08T15:22:00.133Z,86.50
2023-01-08T15:24:33.233Z,86.60
2023-01-08T15:27:09.653Z,87.20
2023-01-08T15:29:48.502Z,89.40
2023-01-08T15:32:15.217Z,89.80
2023-01-08T15:34:46.481Z,89.80
2023-01-08T15:37:15.004Z,89.40
2023-01-08T15:39:43.025Z,88.90
2023-01-08T15:42:39.873Z,87.30
2023-01-08T15:45:12.732Z,86.20
2023-01-08T15:47:39.420Z,86.70
2023-01-08T15:50:06.909Z,86.60
2023-01-08T15:52:34.527Z,86.40
2023-01-08T15:55:01.782Z,86.30
2023-01-08T15:57:31.678Z,86.40
2023-01-08T15:59:58.945Z,86.30
2023-01-08T16:02:25.896Z,85.80
2023-01-08T16:04:54.382Z,86.40
2023-01-08T16:07:21.676Z,86.10
2023-01-08T16:09:49.011Z,85.60
2023-01-08T16:12:15.710Z,85.30
2023-01-08T16:14:42.451Z,86.20
2023-01-08T16:17:10.066Z,87.30
2023-01-08T16:19:36.882Z,87.20
2023-01-08T16:22:04.800Z,86.20
2023-01-08T16:24:31.760Z,86.30
2023-01-08T16:26:58.529Z,86.10
2023-01-08T16:29:25.954Z,87.50
2023-01-08T16:31:52.841Z,87.70
2023-01-08T16:34:19.773Z,88.60
2023-01-08T16:36:47.650Z,89.20
2023-01-08T16:39:14.694Z,89.30
2023-01-08T16:41:41.415Z,89.60
2023-01-08T16:44:28.517Z,89.60
2023-01-08T16:46:56.054Z,89.90
2023-01-08T16:49:22.981Z,89.70
2023-01-08T16:51:49.964Z,89.30
2023-01-08T16:54:17.281Z,89.20
2023-01-08T16:56:44.441Z,88.40
2023-01-08T16:59:22.378Z,88.00
2023-01-08T17:01:51.190Z,87.30
2023-01-08T17:04:18.040Z,86.20
2023-01-08T17:06:44.861Z,86.30
2023-01-08T17:09:11.917Z,86.60
2023-01-08T17:11:38.897Z,85.70
2023-01-08T17:14:05.708Z,85.60
2023-01-08T17:16:32.548Z,84.70
2023-01-08T17:18:59.298Z,84.70
2023-01-08T17:21:26.006Z,84.20
2023-01-08T17:23:52.734Z,83.90
2023-01-08T17:26:19.546Z,83.80
2023-01-08T17:28:47.318Z,83.30
2023-01-08T17:31:18.410Z,81.60
2023-01-08T17:33:50.097Z,82.00
2023-01-08T17:36:19.311Z,82.10
2023-01-08T17:38:50.687Z,81.30
2023-01-08T17:41:36.784Z,81.90
2023-01-08T17:44:07.000Z,83.20
2023-01-08T17:46:42.473Z,83.60
2023-01-08T17:49:11.431Z,83.10
2023-01-08T17:51:40.749Z,81.80
2023-01-08T17:54:17.189Z,82.80
2023-01-08T17:56:44.221Z,83.00
2023-01-08T17:59:16.006Z,83.20
2023-01-08T18:01:44.869Z,83.80
2023-01-08T18:04:12.538Z,84.30
2023-01-08T18:06:39.418Z,84.50
2023-01-08T18:09:06.330Z,84.10
2023-01-08T18:11:33.302Z,83.30
2023-01-08T18:14:02.213Z,82.70
2023-01-08T18:16:30.068Z,81.60
2023-01-08T18:18:57.924Z,80.20
2023-01-08T18:21:25.603Z,79.00
2023-01-08T18:23:52.522Z,79.70
2023-01-08T18:26:20.786Z,79.50
2023-01-08T18:28:48.741Z,79.20
2023-01-08T18:31:15.542Z,78.80
2023-01-08T18:33:42.340Z,77.70
2023-01-08T18:36:12.315Z,77.00
2023-01-08T18:38:41.304Z,77.10
2023-01-08T18:41:09.759Z,77.10
2023-01-08T18:43:36.687Z,77.20
2023-01-08T18:46:06.442Z,76.90
2023-01-08T18:48:34.452Z,76.80
2023-01-08T18:51:05.826Z,75.90
2023-01-08T18:53:33.519Z,75.40
2023-01-08T18:56:03.863Z,74.40
2023-01-08T18:58:30.749Z,73.80
2023-01-08T19:01:04.134Z,75.30
2023-01-08T19:03:31.035Z,75.10
2023-01-08T19:05:57.803Z,75.00
2023-01-08T19:08:25.037Z,75.80
2023-01-08T19:10:52.039Z,76.50
2023-01-08T19:13:19.194Z,76.60
2023-01-08T19:15:46.844Z,76.90
2023-01-08T19:18:13.989Z,76.20
2023-01-08T19:20:46.315Z,75.10
2023-01-08T19:23:13.781Z,74.30
2023-01-08T19:25:40.794Z,75.00
2023-01-08T19:28:07.896Z,73.60
2023-01-08T19:30:34.951Z,72.50
2023-01-08T19:33:01.988Z,71.10
2023-01-08T19:35:29.722Z,71.20
2023-01-08T19:37:56.606Z,70.60
2023-01-08T19:40:23.988Z,70.50
2023-01-08T19:43:09.409Z,69.80
2023-01-08T19:45:39.623Z,69.40
2023-01-08T19:48:06.695Z,69.10
2023-01-08T19:50:34.229Z,69.50
2023-01-08T19:53:01.041Z,69.00
2023-01-08T19:55:27.983Z,68.60
2023-01-08T19:57:55.128Z,67.80
2023-01-08T20:00:22.468Z,68.20
2023-01-08T20:02:51.415Z,68.50
2023-01-08T20:05:18.433Z,66.80
2023-01-08T20:07:45.243Z,65.50
2023-01-08T20:10:12.976Z,65.40
2023-01-08T20:12:40.117Z,65.20
2023-01-08T20:15:07.352Z,65.30
2023-01-08T20:17:34.069Z,65.50
2023-01-08T20:20:00.788Z,65.40
2023-01-08T20:22:29.098Z,65.50
2023-01-08T20:24:57.677Z,65.30
2023-01-08T20:27:25.175Z,65.00
2023-01-08T20:29:52.078Z,64.80
2023-01-08T20:32:20.981Z,64.70
2023-01-08T20:34:49.113Z,64.10
2023-01-08T20:37:16.180Z,65.10
2023-01-08T20:39:43.248Z,65.00
2023-01-08T20:42:10.087Z,64.90
2023-01-08T20:44:36.916Z,64.40
2023-01-08T20:47:05.266Z,64.60
2023-01-08T20:49:32.041Z,64.80
2023-01-08T20:52:00.355Z,65.50
2023-01-08T20:54:29.441Z,64.90
2023-01-08T20:56:57.146Z,65.10
2023-01-08T20:59:24.649Z,66.70
2023-01-08T21:01:51.651Z,67.30
2023-01-08T21:04:18.948Z,67.20
2023-01-08T21:06:45.872Z,67.00
2023-01-08T21:09:14.027Z,67.50
2023-01-08T21:11:41.377Z,68.20
2023-01-08T21:14:08.961Z,68.20
2023-01-08T21:16:36.548Z,69.00
2023-01-08T21:19:03.883Z,69.50
2023-01-08T21:21:36.538Z,68.40
2023-01-08T21:24:07.257Z,68.10
2023-01-08T21:26:34.767Z,67.50
2023-01-08T21:29:06.455Z,66.20
2023-01-08T21:31:34.362Z,65.40
2023-01-08T21:34:02.668Z,65.50
2023-01-08T21:36:31.683Z,66.10
2023-01-08T21:39:00.295Z,66.30
2023-01-08T21:41:47.283Z,65.90
2023-01-08T21:44:38.407Z,66.40
2023-01-08T21:47:08.161Z,67.00
2023-01-08T21:49:36.145Z,68.30
2023-01-08T21:52:21.972Z,69.70
2023-01-08T21:54:48.763Z,68.50
2023-01-08T21:57:16.737Z,68.10
2023-01-08T21:59:44.102Z,68.30
2023-01-08T22:02:16.099Z,68.60
2023-01-08T22:04:48.982Z,68.30
2023-01-08T22:07:16.046Z,68.10
2023-01-08T22:09:42.872Z,67.10
2023-01-08T22:12:09.723Z,67.00
2023-01-08T22:14:36.652Z,67.10
2023-01-08T22:17:08.441Z,68.00
2023-01-08T22:19:38.605Z,68.10
2023-01-08T22:22:05.471Z,68.10
2023-01-08T22:24:32.285Z,67.80
2023-01-08T22:26:59.101Z,67.80
2023-01-08T22:29:26.109Z,66.90
2023-01-08T22:31:52.978Z,66.70
2023-01-08T22:34:19.817Z,66.70
2023-01-08T22:36:50.309Z,66.90
2023-01-08T22:39:17.686Z,66.70
2023-01-08T22:41:44.808Z,66.50
2023-01-08T22:44:12.719Z,66.60
2023-01-08T22:46:39.642Z,66.30
2023-01-08T22:49:07.122Z,66.30
2023-01-08T22:51:33.902Z,66.50
2023-01-08T22:54:00.732Z,66.40
2023-01-08T22:56:27.559Z,66.50
2023-01-08T22:58:55.067Z,66.60
2023-01-08T23:01:27.251Z,66.80
2023-01-08T23:04:01.420Z,67.10
2023-01-08T23:06:30.578Z,67.50
2023-01-08T23:08:57.710Z,67.80
2023-01-08T23:11:25.139Z,67.90
2023-01-08T23:13:52.472Z,68.50
2023-01-08T23:16:24.191Z,69.70
2023-01-08T23:18:51.759Z,70.10
2023-01-08T23:21:21.324Z,70.50
2023-01-08T23:23:48.615Z,70.60
2023-01-08T23:26:19.451Z,70.70
2023-01-08T23:28:50.598Z,70.50
2023-01-08T23:31:21.143Z,69.60
2023-01-08T23:33:48.312Z,69.10
2023-01-08T23:36:18.415Z,69.50
2023-01-08T23:38:46.470Z,69.20
2023-01-08T23:41:13.846Z,69.10
2023-01-08T23:43:41.165Z,68.30
2023-01-08T23:46:08.310Z,68.80
2023-01-08T23:48:35.693Z,68.10
2023-01-08T23:51:02.514Z,68.50
2023-01-08T23:53:29.571Z,69.60
2023-01-08T23:55:56.520Z,71.20
2023-01-08T23:58:23.902Z,71.80
